createdAt,value
2023-05-14T00:00:51.584Z,101065.19
2023-05-14T00:03:21.093Z,101123.56
2023-05-14T00:05:48.578Z,101119.50
2023-05-14T00:08:15.164Z,101125.19
2023-05-14T00:10:41.754Z,101112.16
2023-05-14T00:13:08.281Z,101110.50
2023-05-14T00:15:34.803Z,101104.31
2023-05-14T00:18:01.447Z,101105.47
2023-05-14T00:20:28.101Z,101103.75
2023-05-14T00:22:56.577Z,101111.13
2023-05-14T00:25:23.170Z,101101.28
2023-05-14T00:27:51.973Z,101098.75
2023-05-14T00:30:18.968Z,101105.09
2023-05-14T00:32:48.471Z,101090.03
2023-05-14T00:35:14.979Z,101094.41
2023-05-14T00:37:41.555Z,101086.38
2023-05-14T00:40:08.753Z,101086.38
2023-05-14T00:42:42.940Z,101041.47
2023-05-14T00:45:15.875Z,101079.97
2023-05-14T00:47:42.539Z,101074.06
2023-05-14T00:50:09.341Z,101074.91
2023-05-14T00:52:39.274Z,101069.25
2023-05-14T00:55:07.825Z,101064.19
2023-05-14T00:57:37.506Z,101060.84
2023-05-14T01:00:04.765Z,101062.19
2023-05-14T01:02:32.548Z,101062.06
2023-05-14T01:04:59.175Z,101060.53
2023-05-14T01:07:28.896Z,101046.13
2023-05-14T01:10:02.444Z,101059.16
2023-05-14T01:12:44.889Z,101058.66
2023-05-14T01:15:12.839Z,101033.97
2023-05-14T01:17:43.089Z,101052.44
2023-05-14T01:20:09.830Z,101047.19
2023-05-14T01:22:36.526Z,101047.41
2023-05-14T01:25:03.132Z,101044.06
2023-05-14T01:27:40.078Z,101046.50
2023-05-14T01:30:26.470Z,101041.31
2023-05-14T01:32:54.905Z,101034.81
2023-05-14T01:35:25.113Z,101030.44
2023-05-14T01:38:01.677Z,101025.25
2023-05-14T01:40:29.018Z,101027.25
2023-05-14T01:42:56.684Z,101019.22
2023-05-14T01:45:23.901Z,101014.88
2023-05-14T01:47:52.180Z,101009.31
2023-05-14T01:50:21.669Z,101001.44
2023-05-14T01:52:51.461Z,100997.22
2023-05-14T01:55:21.193Z,100995.59
2023-05-14T01:57:47.710Z,100992.84
2023-05-14T02:00:17.545Z,100990.00
2023-05-14T02:02:44.192Z,100988.97
2023-05-14T02:05:11.268Z,100987.31
2023-05-14T02:07:37.828Z,100989.28
2023-05-14T02:10:07.312Z,100987.66
2023-05-14T02:12:33.895Z,100987.59
2023-05-14T02:15:00.553Z,100993.16
2023-05-14T02:17:27.188Z,100934.75
2023-05-14T02:19:54.124Z,101009.00
2023-05-14T02:22:20.742Z,101002.59
2023-05-14T02:24:47.316Z,101005.09
2023-05-14T02:27:13.933Z,101005.13
2023-05-14T02:29:40.646Z,100999.25
2023-05-14T02:32:07.400Z,101000.88
2023-05-14T02:34:34.844Z,100984.16
2023-05-14T02:37:01.548Z,100984.56
2023-05-14T02:39:34.539Z,100982.16
2023-05-14T02:42:01.426Z,100983.84
2023-05-14T02:44:31.918Z,100977.44
2023-05-14T02:46:59.246Z,100991.25
2023-05-14T02:49:30.112Z,100986.28
2023-05-14T02:51:56.837Z,100991.25
2023-05-14T02:54:30.127Z,100929.38
2023-05-14T02:56:57.125Z,100972.41
2023-05-14T02:59:24.445Z,100960.34
2023-05-14T03:01:51.989Z,100956.97
2023-05-14T03:04:21.888Z,100953.94
2023-05-14T03:06:48.541Z,100949.75
2023-05-14T03:09:15.224Z,100955.63
2023-05-14T03:11:41.812Z,100939.97
2023-05-14T03:14:08.525Z,100954.56
2023-05-14T03:16:35.199Z,100944.41
2023-05-14T03:19:01.768Z,100942.38
2023-05-14T03:21:28.525Z,100948.22
2023-05-14T03:23:55.224Z,100950.28
2023-05-14T03:26:21.861Z,100951.59
2023-05-14T03:28:48.666Z,100950.06
2023-05-14T03:31:15.579Z,100902.63
2023-05-14T03:33:42.370Z,100953.09
2023-05-14T03:36:12.322Z,100954.75
2023-05-14T03:38:38.925Z,100956.88
2023-05-14T03:41:05.529Z,100962.50
2023-05-14T03:43:32.165Z,100958.94
2023-05-14T03:45:58.698Z,100965.44
2023-05-14T03:48:25.401Z,100960.38
2023-05-14T03:50:52.420Z,100964.38
2023-05-14T03:53:19.035Z,100969.72
2023-05-14T03:55:48.064Z,100969.72
2023-05-14T03:58:14.765Z,100973.09
2023-05-14T04:00:42.205Z,100981.63
2023-05-14T04:03:08.990Z,100973.47
2023-05-14T04:05:36.078Z,100983.13
2023-05-14T04:08:02.625Z,100974.97
2023-05-14T04:10:29.330Z,100971.84
2023-05-14T04:13:03.688Z,100960.94
2023-05-14T04:15:36.281Z,100903.69
2023-05-14T04:18:23.443Z,100941.06
2023-05-14T04:20:50.081Z,100948.72
2023-05-14T04:23:16.559Z,100964.91
2023-05-14T04:25:43.173Z,100959.88
2023-05-14T04:28:09.672Z,100948.63
2023-05-14T04:30:36.216Z,100950.69
2023-05-14T04:33:02.903Z,100941.44
2023-05-14T04:35:29.570Z,100941.75
2023-05-14T04:37:56.147Z,100939.38
2023-05-14T04:40:34.467Z,100939.00
2023-05-14T04:43:01.172Z,100945.38
2023-05-14T04:45:27.753Z,100951.84
2023-05-14T04:47:54.517Z,100951.72
2023-05-14T04:50:21.656Z,100955.03
2023-05-14T04:52:48.509Z,100962.69
2023-05-14T04:55:15.398Z,100962.00
2023-05-14T04:57:41.932Z,100967.75
2023-05-14T05:00:10.109Z,100960.38
2023-05-14T05:02:40.448Z,100964.38
2023-05-14T05:05:07.306Z,100963.84
2023-05-14T05:07:33.875Z,100957.66
2023-05-14T05:10:00.789Z,100964.91
2023-05-14T05:12:30.535Z,100961.34
2023-05-14T05:14:57.589Z,100958.88
2023-05-14T05:17:25.116Z,100964.38
2023-05-14T05:19:51.825Z,100959.31
2023-05-14T05:22:20.319Z,100961.44
2023-05-14T05:24:49.236Z,100968.06
2023-05-14T05:27:16.728Z,100962.22
2023-05-14T05:29:44.230Z,100973.41
2023-05-14T05:32:10.924Z,100970.22
2023-05-14T05:34:39.923Z,100975.56
2023-05-14T05:37:06.548Z,100971.44
2023-05-14T05:39:35.201Z,100966.69
2023-05-14T05:42:05.531Z,100964.53
2023-05-14T05:44:32.083Z,100965.53
2023-05-14T05:46:58.798Z,100964.38
2023-05-14T05:49:25.622Z,100968.91
2023-05-14T05:51:52.299Z,100970.53
2023-05-14T05:54:25.588Z,100971.28
2023-05-14T05:56:52.248Z,100975.47
2023-05-14T05:59:19.019Z,100975.19
2023-05-14T06:01:45.599Z,100981.22
2023-05-14T06:04:12.384Z,100976.16
2023-05-14T06:06:38.862Z,100973.13
2023-05-14T06:09:07.096Z,100974.13
2023-05-14T06:11:33.810Z,100972.13
2023-05-14T06:14:01.373Z,100973.81
2023-05-14T06:16:28.241Z,100967.47
2023-05-14T06:18:55.677Z,100966.16
2023-05-14T06:21:22.290Z,100960.22
2023-05-14T06:23:49.939Z,100951.91
2023-05-14T06:26:18.058Z,100944.22
2023-05-14T06:28:45.376Z,100946.00
2023-05-14T06:31:13.896Z,100948.69
2023-05-14T06:33:42.500Z,100949.53
2023-05-14T06:36:09.830Z,100945.56
2023-05-14T06:38:36.729Z,100944.66
2023-05-14T06:41:03.568Z,100939.66
2023-05-14T06:43:30.190Z,100945.00
2023-05-14T06:45:56.956Z,100940.16
2023-05-14T06:48:24.191Z,100942.06
2023-05-14T06:50:51.093Z,100939.56
2023-05-14T06:53:18.800Z,100940.38
2023-05-14T06:55:47.245Z,100940.94
2023-05-14T06:58:14.019Z,100943.19
2023-05-14T07:00:40.548Z,100946.22
2023-05-14T07:03:08.821Z,100944.50
2023-05-14T07:05:35.978Z,100945.50
2023-05-14T07:08:02.505Z,100941.69
2023-05-14T07:10:29.297Z,100943.50
2023-05-14T07:12:56.178Z,100946.09
2023-05-14T07:15:24.837Z,100938.22
2023-05-14T07:17:51.464Z,100920.88
2023-05-14T07:20:21.002Z,100922.19
2023-05-14T07:22:47.627Z,100921.50
2023-05-14T07:25:14.266Z,100914.84
2023-05-14T07:27:41.436Z,100917.16
2023-05-14T07:30:08.361Z,100909.59
2023-05-14T07:32:35.015Z,100913.78
2023-05-14T07:35:02.156Z,100918.81
2023-05-14T07:37:28.887Z,100915.78
2023-05-14T07:39:56.491Z,100916.50
2023-05-14T07:42:35.007Z,100914.16
2023-05-14T07:45:03.107Z,100917.53
2023-05-14T07:47:33.016Z,100820.06
2023-05-14T07:50:00.236Z,100918.22
2023-05-14T07:52:30.021Z,100916.38
2023-05-14T07:54:56.840Z,100912.00
2023-05-14T07:57:23.673Z,100910.44
2023-05-14T07:59:57.258Z,100901.72
2023-05-14T08:02:24.651Z,100905.94
2023-05-14T08:04:54.705Z,100901.94
2023-05-14T08:07:21.703Z,100897.44
2023-05-14T08:09:49.438Z,100905.59
2023-05-14T08:12:17.390Z,100900.25
2023-05-14T08:14:47.255Z,100901.09
2023-05-14T08:17:13.975Z,100897.94
2023-05-14T08:19:43.982Z,100900.31
2023-05-14T08:22:10.540Z,100895.94
2023-05-14T08:24:37.057Z,100893.81
2023-05-14T08:27:03.734Z,100892.00
2023-05-14T08:29:30.460Z,100889.00
2023-05-14T08:31:57.989Z,100892.03
2023-05-14T08:34:24.778Z,100893.56
2023-05-14T08:36:51.468Z,100886.38
2023-05-14T08:39:17.927Z,100891.75
2023-05-14T08:41:45.331Z,100878.41
2023-05-14T08:44:11.885Z,100881.09
2023-05-14T08:46:39.691Z,100833.84
2023-05-14T08:49:17.414Z,100881.81
2023-05-14T08:51:48.606Z,100870.81
2023-05-14T08:54:19.908Z,100878.84
2023-05-14T08:56:46.605Z,100872.16
2023-05-14T08:59:13.632Z,100869.34
2023-05-14T09:05:38.596Z,100870.84
2023-05-14T09:08:05.203Z,100863.00
2023-05-14T09:10:32.730Z,100862.66
2023-05-14T09:13:02.425Z,100856.13
2023-05-14T09:15:29.684Z,100861.47
2023-05-14T09:17:56.792Z,100862.78
2023-05-14T09:20:24.779Z,100861.66
2023-05-14T09:23:06.465Z,100863.13
2023-05-14T09:25:38.561Z,100855.94
2023-05-14T09:28:09.223Z,100850.25
2023-05-14T09:30:37.092Z,100851.59
2023-05-14T09:33:08.490Z,100847.06
2023-05-14T09:35:35.043Z,100851.72
2023-05-14T09:38:01.619Z,100847.69
2023-05-14T09:40:28.568Z,100854.41
2023-05-14T09:42:58.453Z,100850.38
2023-05-14T09:45:25.317Z,100859.75
2023-05-14T09:47:58.068Z,100844.03
2023-05-14T09:50:26.697Z,100848.69
2023-05-14T09:52:55.531Z,100849.53
2023-05-14T09:55:24.722Z,100850.38
2023-05-14T09:57:51.557Z,100849.53
2023-05-14T10:00:19.411Z,100837.13
2023-05-14T10:02:46.735Z,100841.19
2023-05-14T10:05:14.109Z,100835.69
2023-05-14T10:07:50.101Z,100781.78
2023-05-14T10:10:19.634Z,100827.31
2023-05-14T10:12:51.033Z,100837.69
2023-05-14T10:15:21.307Z,100832.69
2023-05-14T10:17:49.950Z,100835.19
2023-05-14T10:20:20.600Z,100836.69
2023-05-14T10:22:47.728Z,100830.00
2023-05-14T10:25:14.961Z,100835.34
2023-05-14T10:27:44.993Z,100834.34
2023-05-14T10:30:14.513Z,100839.53
2023-05-14T10:32:42.224Z,100828.97
2023-05-14T10:35:20.782Z,100833.31
2023-05-14T10:37:47.657Z,100829.31
2023-05-14T10:40:14.525Z,100840.25
2023-05-14T10:42:43.508Z,100839.44
2023-05-14T10:45:11.980Z,100846.28
2023-05-14T10:47:46.609Z,100840.41
2023-05-14T10:50:25.265Z,100843.06
2023-05-14T10:52:52.866Z,100840.22
2023-05-14T10:55:19.684Z,100844.72
2023-05-14T10:57:46.820Z,100841.69
2023-05-14T11:00:17.581Z,100838.50
2023-05-14T11:02:45.167Z,100841.03
2023-05-14T11:05:19.839Z,100842.88
2023-05-14T11:07:48.515Z,100851.41
2023-05-14T11:10:17.366Z,100796.97
2023-05-14T11:12:45.162Z,100844.41
2023-05-14T11:15:16.926Z,100840.22
2023-05-14T11:17:44.961Z,100846.59
2023-05-14T11:20:12.351Z,100844.25
2023-05-14T11:22:40.372Z,100842.25
2023-05-14T11:25:07.751Z,100836.53
2023-05-14T11:27:35.723Z,100834.38
2023-05-14T11:30:02.552Z,100828.88
2023-05-14T11:32:29.225Z,100829.22
2023-05-14T11:34:56.072Z,100825.56
2023-05-14T11:37:22.799Z,100824.28
2023-05-14T11:39:57.571Z,100825.13
2023-05-14T11:42:25.962Z,100829.41
2023-05-14T11:44:54.030Z,100824.22
2023-05-14T11:47:21.927Z,100822.28
2023-05-14T11:49:53.764Z,100824.78
2023-05-14T11:52:22.107Z,100821.09
2023-05-14T11:54:51.072Z,100818.25
2023-05-14T11:57:21.863Z,100812.06
2023-05-14T11:59:56.611Z,100813.09
2023-05-14T12:02:23.605Z,100814.59
2023-05-14T12:04:52.425Z,100804.72
2023-05-14T12:07:22.001Z,100804.06
2023-05-14T12:09:50.072Z,100804.56
2023-05-14T12:12:20.962Z,100805.06
2023-05-14T12:14:47.863Z,100809.22
2023-05-14T12:17:17.428Z,100808.25
2023-05-14T12:19:45.146Z,100798.88
2023-05-14T12:22:14.462Z,100805.22
2023-05-14T12:24:43.968Z,100807.22
2023-05-14T12:27:11.088Z,100813.91
2023-05-14T12:29:39.151Z,100805.22
2023-05-14T12:32:09.768Z,100807.22
2023-05-14T12:34:37.703Z,100807.66
2023-05-14T12:37:05.162Z,100809.13
2023-05-14T12:39:33.361Z,100805.13
2023-05-14T12:42:00.095Z,100809.31
2023-05-14T12:44:26.769Z,100812.97
2023-05-14T12:46:53.688Z,100811.81
2023-05-14T12:49:21.844Z,100734.13
2023-05-14T12:51:48.768Z,100809.47
2023-05-14T12:54:16.147Z,100801.81
2023-05-14T12:56:42.866Z,100797.47
2023-05-14T12:59:12.980Z,100799.31
2023-05-14T13:01:43.623Z,100801.81
2023-05-14T13:04:12.659Z,100791.31
2023-05-14T13:06:42.731Z,100789.31
2023-05-14T13:09:09.654Z,100787.13
2023-05-14T13:11:39.064Z,100790.47
2023-05-14T13:14:05.787Z,100789.50
2023-05-14T13:16:32.315Z,100783.13
2023-05-14T13:18:58.907Z,100777.09
2023-05-14T13:21:25.634Z,100774.41
2023-05-14T13:23:52.252Z,100769.72
2023-05-14T13:26:18.834Z,100764.56
2023-05-14T13:28:45.565Z,100773.25
2023-05-14T13:31:12.944Z,100763.03
2023-05-14T13:33:43.491Z,100755.34
2023-05-14T13:36:11.918Z,100761.03
2023-05-14T13:38:38.624Z,100753.34
2023-05-14T13:41:05.805Z,100746.31
2023-05-14T13:43:33.058Z,100747.63
2023-05-14T13:46:00.176Z,100746.97
2023-05-14T13:48:27.765Z,100753.97
2023-05-14T13:50:54.546Z,100750.94
2023-05-14T13:53:21.533Z,100748.13
2023-05-14T13:55:49.299Z,100752.28
2023-05-14T13:58:17.356Z,100738.03
2023-05-14T14:00:43.954Z,100735.84
2023-05-14T14:03:10.679Z,100746.53
2023-05-14T14:05:40.072Z,100736.97
2023-05-14T14:08:22.597Z,100732.09
2023-05-14T14:10:50.974Z,100742.47
2023-05-14T14:13:17.616Z,100738.13
2023-05-14T14:15:44.626Z,100734.38
2023-05-14T14:18:11.544Z,100737.03
2023-05-14T14:20:41.221Z,100741.44
2023-05-14T14:23:07.758Z,100725.69
2023-05-14T14:25:39.230Z,100662.03
2023-05-14T14:28:08.964Z,100725.19
2023-05-14T14:30:38.129Z,100636.78
2023-05-14T14:33:07.747Z,100739.88
2023-05-14T14:35:37.839Z,100736.16
2023-05-14T14:38:05.854Z,100661.56
2023-05-14T14:40:52.893Z,100726.09
2023-05-14T14:43:19.700Z,100723.56
2023-05-14T14:45:48.885Z,100721.69
2023-05-14T14:48:25.113Z,100711.72
2023-05-14T14:50:54.488Z,100715.16
2023-05-14T14:53:22.026Z,100715.28
2023-05-14T14:55:49.397Z,100715.06
2023-05-14T14:58:16.840Z,100711.34
2023-05-14T15:00:54.437Z,100666.25
2023-05-14T15:03:24.564Z,100715.56
2023-05-14T15:05:52.338Z,100713.44
2023-05-14T15:08:19.307Z,100721.47
2023-05-14T15:10:49.927Z,100709.41
2023-05-14T15:13:16.546Z,100711.13
2023-05-14T15:15:43.145Z,100713.66
2023-05-14T15:18:14.763Z,100710.06
2023-05-14T15:20:42.781Z,100711.09
2023-05-14T15:23:11.681Z,100704.13
2023-05-14T15:25:38.375Z,100706.28
2023-05-14T15:28:06.164Z,100710.53
2023-05-14T15:30:37.260Z,100720.59
2023-05-14T15:33:06.761Z,100717.56
2023-05-14T15:35:33.432Z,100727.97
2023-05-14T15:38:04.034Z,100716.41
2023-05-14T15:40:30.686Z,100723.28
2023-05-14T15:43:00.881Z,100715.59
2023-05-14T15:45:28.282Z,100721.63
2023-05-14T15:47:54.819Z,100720.59
2023-05-14T15:50:27.484Z,100713.88
2023-05-14T15:52:58.997Z,100715.84
2023-05-14T15:55:25.549Z,100714.00
2023-05-14T15:57:54.219Z,100703.75
2023-05-14T16:00:21.358Z,100662.84
2023-05-14T16:02:56.794Z,100656.31
2023-05-14T16:05:23.818Z,100709.78
2023-05-14T16:07:50.790Z,100709.97
2023-05-14T16:10:18.484Z,100708.94
2023-05-14T16:12:47.990Z,100707.19
2023-05-14T16:15:14.678Z,100704.38
2023-05-14T16:17:42.076Z,100711.88
2023-05-14T16:20:11.353Z,100706.16
2023-05-14T16:22:38.036Z,100703.38
2023-05-14T16:25:05.030Z,100703.75
2023-05-14T16:27:32.159Z,100702.91
2023-05-14T16:30:01.748Z,100705.91
2023-05-14T16:32:28.375Z,100706.84
2023-05-14T16:34:56.744Z,100666.88
2023-05-14T16:37:23.469Z,100714.44
2023-05-14T16:39:52.236Z,100710.78
2023-05-14T16:42:19.062Z,100702.16
2023-05-14T16:44:45.727Z,100703.34
2023-05-14T16:47:16.498Z,100648.69
2023-05-14T16:49:44.572Z,100701.00
2023-05-14T16:52:11.202Z,100691.00
2023-05-14T16:54:37.655Z,100690.56
2023-05-14T16:57:04.630Z,100685.88
2023-05-14T16:59:31.157Z,100686.69
2023-05-14T17:01:57.740Z,100685.34
2023-05-14T17:04:26.710Z,100682.00
2023-05-14T17:06:53.862Z,100698.53
2023-05-14T17:09:20.555Z,100701.22
2023-05-14T17:11:47.396Z,100702.91
2023-05-14T17:14:14.858Z,100709.63
2023-05-14T17:16:42.454Z,100696.06
2023-05-14T17:19:09.310Z,100705.28
2023-05-14T17:21:35.880Z,100690.69
2023-05-14T17:24:02.424Z,100696.91
2023-05-14T17:26:29.434Z,100698.56
2023-05-14T17:28:59.128Z,100691.88
2023-05-14T17:31:25.823Z,100698.63
2023-05-14T17:33:52.779Z,100696.09
2023-05-14T17:36:23.364Z,100644.47
2023-05-14T17:38:50.040Z,100693.25
2023-05-14T17:41:17.911Z,100699.81
2023-05-14T17:43:44.953Z,100693.25
2023-05-14T17:46:11.549Z,100695.44
2023-05-14T17:48:38.186Z,100685.59
2023-05-14T17:51:05.163Z,100691.97
2023-05-14T17:53:32.925Z,100695.69
2023-05-14T17:56:00.921Z,100698.50
2023-05-14T17:58:27.649Z,100700.53
2023-05-14T18:01:00.743Z,100704.53
2023-05-14T18:03:30.969Z,100708.91
2023-05-14T18:06:01.516Z,100663.09
2023-05-14T18:08:31.011Z,100721.59
2023-05-14T18:10:58.771Z,100705.03
2023-05-14T18:13:31.862Z,100659.94
2023-05-14T18:15:59.327Z,100702.06
2023-05-14T18:18:26.058Z,100709.94
2023-05-14T18:20:56.787Z,100711.78
2023-05-14T18:23:24.642Z,100716.94
2023-05-14T18:25:51.225Z,100716.78
2023-05-14T18:28:19.350Z,100717.16
2023-05-14T18:30:46.026Z,100717.16
2023-05-14T18:33:13.056Z,100718.47
2023-05-14T18:35:39.689Z,100721.50
2023-05-14T18:38:07.951Z,100725.19
2023-05-14T18:40:35.101Z,100725.19
2023-05-14T18:43:08.149Z,100720.66
2023-05-14T18:45:35.110Z,100720.53
2023-05-14T18:48:11.083Z,100724.03
2023-05-14T18:50:44.170Z,100727.06
2023-05-14T18:53:18.020Z,100720.69
2023-05-14T18:55:52.762Z,100676.88
2023-05-14T18:58:23.382Z,100728.88
2023-05-14T19:00:55.743Z,100726.72
2023-05-14T19:03:27.305Z,100730.56
2023-05-14T19:06:01.101Z,100726.19
2023-05-14T19:08:30.570Z,100734.91
2023-05-14T19:10:59.686Z,100736.72
2023-05-14T19:13:46.869Z,100737.75
2023-05-14T19:16:14.470Z,100738.59
2023-05-14T19:18:42.508Z,100743.63
2023-05-14T19:21:11.834Z,100737.94
2023-05-14T19:23:48.107Z,100738.25
2023-05-14T19:26:18.547Z,100738.78
2023-05-14T19:28:45.790Z,100742.63
2023-05-14T19:31:16.124Z,100752.03
2023-05-14T19:33:45.780Z,100757.53
2023-05-14T19:36:16.513Z,100767.41
2023-05-14T19:38:46.571Z,100759.38
2023-05-14T19:41:27.002Z,100716.00
2023-05-14T19:44:01.044Z,100770.75
2023-05-14T19:46:36.436Z,100770.44
2023-05-14T19:49:03.135Z,100770.75
2023-05-14T19:51:32.872Z,100770.75
2023-05-14T19:54:02.987Z,100750.66
2023-05-14T19:56:29.910Z,100765.41
2023-05-14T19:59:01.811Z,100771.94
2023-05-14T20:01:29.210Z,100772.75
2023-05-14T20:04:04.022Z,100773.09
2023-05-14T20:06:31.102Z,100771.91
2023-05-14T20:08:58.125Z,100773.59
2023-05-14T20:11:32.285Z,100773.75
2023-05-14T20:14:04.336Z,100774.09
2023-05-14T20:16:32.844Z,100771.25
2023-05-14T20:19:03.170Z,100715.16
2023-05-14T20:21:36.918Z,100758.69
2023-05-14T20:24:06.062Z,100757.88
2023-05-14T20:26:32.958Z,100756.03
2023-05-14T20:29:02.510Z,100769.09
2023-05-14T20:31:29.565Z,100767.06
2023-05-14T20:33:57.584Z,100755.03
2023-05-14T20:36:30.101Z,100760.38
2023-05-14T20:39:04.896Z,100756.53
2023-05-14T20:41:32.182Z,100764.38
2023-05-14T20:43:59.230Z,100761.56
2023-05-14T20:46:33.019Z,100715.34
2023-05-14T20:49:04.527Z,100753.66
2023-05-14T20:51:33.484Z,100751.19
2023-05-14T20:54:01.122Z,100753.19
2023-05-14T20:56:28.567Z,100749.00
2023-05-14T20:58:55.427Z,100748.16
2023-05-14T21:01:27.240Z,100745.50
2023-05-14T21:03:57.738Z,100744.00
2023-05-14T21:06:28.981Z,100748.31
2023-05-14T21:08:55.797Z,100751.34
2023-05-14T21:11:23.753Z,100752.19
2023-05-14T21:13:50.623Z,100745.13
2023-05-14T21:16:17.486Z,100746.97
2023-05-14T21:18:44.257Z,100748.66
2023-05-14T21:21:11.211Z,100739.25
2023-05-14T21:23:38.490Z,100740.63
2023-05-14T21:26:05.272Z,100738.91
2023-05-14T21:28:32.581Z,100750.63
2023-05-14T21:31:01.376Z,100737.56
2023-05-14T21:33:27.889Z,100738.06
2023-05-14T21:36:01.745Z,100738.06
2023-05-14T21:38:31.970Z,100729.88
2023-05-14T21:40:58.582Z,100736.06
2023-05-14T21:43:45.968Z,100732.56
2023-05-14T21:46:18.528Z,100735.72
2023-05-14T21:48:45.473Z,100737.41
2023-05-14T21:51:15.233Z,100737.38
2023-05-14T21:53:42.567Z,100739.56
2023-05-14T21:56:33.209Z,100728.34
2023-05-14T21:59:00.575Z,100728.69
2023-05-14T22:02:06.724Z,100719.97
2023-05-14T22:04:37.368Z,100712.78
2023-05-14T22:07:08.759Z,100716.81
2023-05-14T22:09:38.325Z,100725.34
2023-05-14T22:12:05.181Z,100725.66
2023-05-14T22:14:34.436Z,100722.84
2023-05-14T22:17:02.090Z,100723.16
2023-05-14T22:19:32.221Z,100725.81
2023-05-14T22:22:03.342Z,100724.16
2023-05-14T22:24:30.213Z,100721.66
2023-05-14T22:27:06.614Z,100720.84
2023-05-14T22:29:41.235Z,100718.50
2023-05-14T22:32:14.689Z,100718.16
2023-05-14T22:34:54.645Z,100677.00
2023-05-14T22:37:21.305Z,100725.19
2023-05-14T22:39:50.006Z,100673.00
2023-05-14T22:42:16.583Z,100722.69
2023-05-14T22:44:44.394Z,100721.66
2023-05-14T22:47:15.012Z,100661.28
2023-05-14T22:49:46.207Z,100675.34
2023-05-14T22:52:12.911Z,100710.16
2023-05-14T22:54:39.545Z,100714.16
2023-05-14T22:57:06.846Z,100719.84
2023-05-14T22:59:33.364Z,100720.50
2023-05-14T23:02:02.090Z,100708.63
2023-05-14T23:04:28.832Z,100707.81
2023-05-14T23:06:55.455Z,100711.31
2023-05-14T23:09:22.199Z,100714.13
2023-05-14T23:11:48.835Z,100711.81
2023-05-14T23:14:18.322Z,100705.09
2023-05-14T23:16:45.100Z,100707.47
2023-05-14T23:19:11.999Z,100706.44
2023-05-14T23:21:42.764Z,100701.25
2023-05-14T23:24:10.105Z,100706.44
2023-05-14T23:26:36.868Z,100691.06
2023-05-14T23:29:03.687Z,100695.56
2023-05-14T23:31:33.545Z,100693.09
2023-05-14T23:33:59.994Z,100687.88
2023-05-14T23:36:34.061Z,100684.03
2023-05-14T23:39:02.763Z,100686.72
2023-05-14T23:41:37.157Z,100685.88
2023-05-14T23:44:03.917Z,100684.88
2023-05-14T23:46:30.692Z,100677.03
2023-05-14T23:48:57.356Z,100677.03
2023-05-14T23:51:24.469Z,100675.00
2023-05-14T23:53:53.279Z,100667.50
2023-05-14T23:56:20.533Z,100673.50
2023-05-14T23:58:48.731Z,100664.97
